SIA606 WSSS-RKSI
Flight info
| Callsign | SIA606 |
|---|---|
| Flight time | N/A |
| Altitude | 39000 |
| Route | HOSBA DCT TOMAN L625 LUSMO N884 LAGOT/N0487F400 N884 LULBU/N0490F390 M754 AKOTA/N0488F400 L625 ABVAR/N0486F410 M646 HCN W4 APU B591 DUBAN B576 OLMEN OLMEN2H |
| Aircraft | A359/H-SDE2E3GHIJ3J4J5LM1ORWXY/LB1D1 |
Departure
| Time | 2026-05-06 07:16 |
|---|---|
| Airport | Singapore Changi Airport (WSSS) |
Arrival
| Time | N/A |
|---|---|
| Airport | Incheon International Airport (RKSI) |
| Time | Latitude | Longitude | Altitude | Speed | Heading |
|---|---|---|---|---|---|
| 2026-05-06 06:41 | 1.35108 | 103.98852 | 66 ft | 0 kts | 294° |
| 2026-05-06 07:02 | 1.35106 | 103.98857 | 38 ft | 4 kts | 302° |
| 2026-05-06 07:02 | 1.35104 | 103.98862 | 37 ft | 4 kts | 295° |
| 2026-05-06 07:02 | 1.35091 | 103.98882 | 35 ft | 4 kts | 317° |
| 2026-05-06 07:03 | 1.35079 | 103.98897 | 38 ft | 4 kts | 286° |
| 2026-05-06 07:03 | 1.35076 | 103.98916 | 37 ft | 4 kts | 245° |
| 2026-05-06 07:03 | 1.35088 | 103.98931 | 34 ft | 4 kts | 208° |
| 2026-05-06 07:03 | 1.35110 | 103.98941 | 36 ft | 1 kts | 202° |
| 2026-05-06 07:08 | 1.35107 | 103.98940 | 39 ft | 2 kts | 202° |
| 2026-05-06 07:08 | 1.35068 | 103.98924 | 39 ft | 10 kts | 202° |
| 2026-05-06 07:08 | 1.34991 | 103.98892 | 39 ft | 13 kts | 202° |
| 2026-05-06 07:08 | 1.34903 | 103.98855 | 39 ft | 15 kts | 202° |
| 2026-05-06 07:09 | 1.34829 | 103.98891 | 39 ft | 13 kts | 116° |
| 2026-05-06 07:09 | 1.34791 | 103.98979 | 39 ft | 14 kts | 112° |
| 2026-05-06 07:09 | 1.34742 | 103.99065 | 39 ft | 14 kts | 150° |
| 2026-05-06 07:09 | 1.34652 | 103.99049 | 39 ft | 14 kts | 202° |
| 2026-05-06 07:10 | 1.34536 | 103.99001 | 40 ft | 22 kts | 202° |
| 2026-05-06 07:10 | 1.34392 | 103.98941 | 39 ft | 23 kts | 202° |
| 2026-05-06 07:10 | 1.34243 | 103.98878 | 39 ft | 24 kts | 202° |
| 2026-05-06 07:10 | 1.34087 | 103.98813 | 39 ft | 25 kts | 202° |
| 2026-05-06 07:11 | 1.33927 | 103.98746 | 39 ft | 25 kts | 202° |
| 2026-05-06 07:11 | 1.33763 | 103.98677 | 39 ft | 26 kts | 202° |
| 2026-05-06 07:11 | 1.33593 | 103.98606 | 38 ft | 27 kts | 202° |
| 2026-05-06 07:11 | 1.33421 | 103.98534 | 38 ft | 27 kts | 202° |
| 2026-05-06 07:12 | 1.33245 | 103.98461 | 39 ft | 28 kts | 202° |
| 2026-05-06 07:12 | 1.33068 | 103.98386 | 39 ft | 28 kts | 202° |
| 2026-05-06 07:12 | 1.32940 | 103.98332 | 39 ft | 14 kts | 203° |
| 2026-05-06 07:12 | 1.32865 | 103.98311 | 39 ft | 8 kts | 171° |
| 2026-05-06 07:13 | 1.32843 | 103.98335 | 39 ft | 0 kts | 114° |
| 2026-05-06 07:13 | 1.32842 | 103.98337 | 39 ft | 2 kts | 114° |
| 2026-05-06 07:14 | 1.32835 | 103.98366 | 39 ft | 5 kts | 93° |
| 2026-05-06 07:14 | 1.32845 | 103.98406 | 39 ft | 7 kts | 71° |
| 2026-05-06 07:14 | 1.32864 | 103.98457 | 38 ft | 9 kts | 68° |
| 2026-05-06 07:14 | 1.32901 | 103.98508 | 38 ft | 9 kts | 32° |
| 2026-05-06 07:15 | 1.32964 | 103.98536 | 39 ft | 10 kts | 22° |
| 2026-05-06 07:15 | 1.33095 | 103.98591 | 39 ft | 47 kts | 22° |
| 2026-05-06 07:15 | 1.33606 | 103.98808 | 36 ft | 110 kts | 23° |
| 2026-05-06 07:15 | 1.34481 | 103.99177 | 42 ft | 162 kts | 24° |
| 2026-05-06 07:16 | 1.35643 | 103.99676 | 169 ft | 197 kts | 25° |
| 2026-05-06 07:16 | 1.36897 | 104.00228 | 884 ft | 194 kts | 25° |
| 2026-05-06 07:16 | 1.38112 | 104.00783 | 1650 ft | 194 kts | 25° |
| 2026-05-06 07:16 | 1.39201 | 104.01683 | 2137 ft | 213 kts | 47° |
| 2026-05-06 07:17 | 1.39947 | 104.02989 | 2684 ft | 222 kts | 77° |
| 2026-05-06 07:17 | 1.39822 | 104.04514 | 3366 ft | 224 kts | 107° |
| 2026-05-06 07:17 | 1.39616 | 104.06084 | 3816 ft | 237 kts | 92° |
| 2026-05-06 07:17 | 1.39558 | 104.07809 | 4090 ft | 258 kts | 92° |
| 2026-05-06 07:18 | 1.39458 | 104.09612 | 4590 ft | 268 kts | 94° |
| 2026-05-06 07:18 | 1.39317 | 104.11487 | 5227 ft | 272 kts | 95° |
| 2026-05-06 07:18 | 1.39156 | 104.13382 | 5921 ft | 276 kts | 95° |
| 2026-05-06 07:18 | 1.38981 | 104.15304 | 6600 ft | 278 kts | 95° |
| 2026-05-06 07:19 | 1.38801 | 104.17238 | 7296 ft | 281 kts | 95° |
| 2026-05-06 07:19 | 1.38616 | 104.19181 | 8018 ft | 282 kts | 95° |
| 2026-05-06 07:19 | 1.38427 | 104.21147 | 8636 ft | 285 kts | 95° |
| 2026-05-06 07:19 | 1.38237 | 104.23126 | 9254 ft | 288 kts | 96° |
| 2026-05-06 07:20 | 1.38043 | 104.25129 | 9984 ft | 291 kts | 95° |
| 2026-05-06 07:20 | 1.37845 | 104.27176 | 10454 ft | 303 kts | 95° |
| 2026-05-06 07:20 | 1.37635 | 104.29335 | 10751 ft | 320 kts | 95° |
| 2026-05-06 07:20 | 1.37415 | 104.31607 | 11051 ft | 336 kts | 95° |
| 2026-05-06 07:21 | 1.37186 | 104.33977 | 11341 ft | 350 kts | 95° |
| 2026-05-06 07:21 | 1.36947 | 104.36443 | 11623 ft | 363 kts | 95° |
| 2026-05-06 07:21 | 1.36700 | 104.38992 | 11969 ft | 372 kts | 95° |
| 2026-05-06 07:21 | 1.36449 | 104.41580 | 12455 ft | 376 kts | 95° |
| 2026-05-06 07:22 | 1.36196 | 104.44191 | 12967 ft | 379 kts | 95° |
| 2026-05-06 07:22 | 1.35941 | 104.46823 | 13491 ft | 382 kts | 95° |
| 2026-05-06 07:22 | 1.35684 | 104.49474 | 13948 ft | 385 kts | 95° |
| 2026-05-06 07:22 | 1.35425 | 104.52146 | 14396 ft | 387 kts | 95° |
| 2026-05-06 07:23 | 1.35164 | 104.54835 | 14829 ft | 390 kts | 95° |
| 2026-05-06 07:23 | 1.34901 | 104.57543 | 15254 ft | 393 kts | 95° |
| 2026-05-06 07:23 | 1.34637 | 104.60269 | 15690 ft | 396 kts | 95° |
| 2026-05-06 07:23 | 1.34370 | 104.63015 | 16101 ft | 398 kts | 95° |
| 2026-05-06 07:24 | 1.34102 | 104.65777 | 16526 ft | 401 kts | 95° |
| 2026-05-06 07:24 | 1.33834 | 104.68558 | 16947 ft | 403 kts | 95° |
| 2026-05-06 07:24 | 1.33721 | 104.71334 | 17349 ft | 406 kts | 89° |
| 2026-05-06 07:24 | 1.33776 | 104.74162 | 17767 ft | 408 kts | 88° |
| 2026-05-06 07:25 | 1.33853 | 104.77007 | 18158 ft | 411 kts | 88° |
| 2026-05-06 07:25 | 1.33929 | 104.79866 | 18499 ft | 413 kts | 88° |
| 2026-05-06 07:25 | 1.34003 | 104.82742 | 18849 ft | 415 kts | 88° |
| 2026-05-06 07:25 | 1.34053 | 104.84699 | 19089 ft | 417 kts | 89° |
| 2026-05-06 07:26 | 1.34125 | 104.87602 | 19442 ft | 418 kts | 89° |
| 2026-05-06 07:26 | 1.34196 | 104.90511 | 19778 ft | 421 kts | 89° |
| 2026-05-06 07:26 | 1.34265 | 104.93446 | 20130 ft | 422 kts | 89° |
| 2026-05-06 07:26 | 1.34337 | 104.96386 | 20471 ft | 424 kts | 88° |
| 2026-05-06 07:27 | 1.34408 | 104.99305 | 20808 ft | 427 kts | 88° |
| 2026-05-06 07:27 | 1.34480 | 105.02312 | 21144 ft | 429 kts | 88° |
| 2026-05-06 07:27 | 1.34551 | 105.05256 | 21485 ft | 431 kts | 88° |
| 2026-05-06 07:27 | 1.34623 | 105.08258 | 21829 ft | 433 kts | 88° |
| 2026-05-06 07:28 | 1.34696 | 105.11269 | 22173 ft | 435 kts | 88° |
| 2026-05-06 07:28 | 1.34768 | 105.14298 | 22518 ft | 437 kts | 88° |
| 2026-05-06 07:28 | 1.34914 | 105.20407 | 23226 ft | 441 kts | 88° |
| 2026-05-06 07:29 | 1.34988 | 105.23480 | 23540 ft | 444 kts | 88° |
| 2026-05-06 07:29 | 1.35062 | 105.26573 | 23820 ft | 446 kts | 88° |
| 2026-05-06 07:29 | 1.35136 | 105.29681 | 24106 ft | 448 kts | 88° |
| 2026-05-06 07:29 | 1.35211 | 105.32801 | 24396 ft | 450 kts | 88° |
| 2026-05-06 07:30 | 1.35286 | 105.35934 | 24702 ft | 453 kts | 88° |
| 2026-05-06 07:30 | 1.35361 | 105.39089 | 25015 ft | 455 kts | 88° |
| 2026-05-06 07:30 | 1.35437 | 105.42258 | 25334 ft | 457 kts | 88° |
| 2026-05-06 07:30 | 1.35512 | 105.45440 | 25665 ft | 459 kts | 88° |
| 2026-05-06 07:31 | 1.35589 | 105.48643 | 26009 ft | 462 kts | 89° |
| 2026-05-06 07:31 | 1.35665 | 105.51861 | 26350 ft | 464 kts | 89° |
| 2026-05-06 07:31 | 1.35742 | 105.55095 | 26703 ft | 467 kts | 89° |
| 2026-05-06 07:31 | 1.35818 | 105.58304 | 27055 ft | 469 kts | 89° |
| 2026-05-06 07:32 | 1.35896 | 105.61579 | 27433 ft | 472 kts | 89° |
| 2026-05-06 07:32 | 1.35974 | 105.64865 | 27799 ft | 475 kts | 89° |
| 2026-05-06 07:32 | 1.36160 | 105.68167 | 28157 ft | 478 kts | 83° |
| 2026-05-06 07:32 | 1.36764 | 105.71439 | 28518 ft | 481 kts | 75° |
| 2026-05-06 07:33 | 1.37867 | 105.74604 | 28878 ft | 484 kts | 66° |
| 2026-05-06 07:33 | 1.39451 | 105.77577 | 29201 ft | 487 kts | 58° |
| 2026-05-06 07:33 | 1.41496 | 105.80298 | 29525 ft | 491 kts | 49° |
| 2026-05-06 07:33 | 1.43949 | 105.82681 | 29851 ft | 494 kts | 40° |
| 2026-05-06 07:34 | 1.46767 | 105.84673 | 30102 ft | 499 kts | 31° |
| 2026-05-06 07:34 | 1.49891 | 105.86215 | 30349 ft | 502 kts | 23° |
| 2026-05-06 07:34 | 1.53106 | 105.87597 | 30601 ft | 504 kts | 26° |
| 2026-05-06 07:34 | 1.56270 | 105.89116 | 30844 ft | 506 kts | 27° |
| 2026-05-06 07:35 | 1.59417 | 105.90704 | 31094 ft | 508 kts | 28° |
| 2026-05-06 07:35 | 1.62557 | 105.92329 | 31379 ft | 508 kts | 28° |
| 2026-05-06 07:35 | 1.65685 | 105.93965 | 31737 ft | 507 kts | 28° |
| 2026-05-06 07:35 | 1.68811 | 105.95601 | 32090 ft | 506 kts | 28° |
| 2026-05-06 07:36 | 1.71939 | 105.97234 | 32442 ft | 506 kts | 28° |
| 2026-05-06 07:36 | 1.75057 | 105.98856 | 32795 ft | 505 kts | 28° |
| 2026-05-06 07:36 | 1.78177 | 106.00476 | 33140 ft | 504 kts | 28° |
| 2026-05-06 07:36 | 1.81285 | 106.02086 | 33468 ft | 503 kts | 28° |
| 2026-05-06 07:37 | 1.84394 | 106.03695 | 33806 ft | 503 kts | 28° |
| 2026-05-06 07:37 | 1.87500 | 106.05303 | 34095 ft | 502 kts | 28° |
| 2026-05-06 07:37 | 1.90598 | 106.06907 | 34410 ft | 501 kts | 28° |
| 2026-05-06 07:37 | 1.93689 | 106.08511 | 34703 ft | 499 kts | 28° |
| 2026-05-06 07:38 | 1.96766 | 106.10106 | 35008 ft | 498 kts | 28° |
| 2026-05-06 07:38 | 1.99799 | 106.11673 | 35316 ft | 497 kts | 28° |
| 2026-05-06 07:38 | 2.02870 | 106.13259 | 35612 ft | 496 kts | 28° |
| 2026-05-06 07:38 | 2.05932 | 106.14840 | 35880 ft | 495 kts | 28° |
| 2026-05-06 07:39 | 2.09023 | 106.16437 | 36144 ft | 494 kts | 28° |
| 2026-05-06 07:39 | 2.12078 | 106.18017 | 36408 ft | 493 kts | 28° |
| 2026-05-06 07:39 | 2.15082 | 106.19570 | 36667 ft | 492 kts | 28° |
| 2026-05-06 07:39 | 2.18122 | 106.21143 | 36931 ft | 492 kts | 28° |
| 2026-05-06 07:40 | 2.21164 | 106.22717 | 37182 ft | 491 kts | 28° |
| 2026-05-06 07:40 | 2.24191 | 106.24283 | 37437 ft | 490 kts | 28° |
| 2026-05-06 07:40 | 2.27219 | 106.25850 | 37685 ft | 489 kts | 28° |
| 2026-05-06 07:40 | 2.30244 | 106.27416 | 37920 ft | 488 kts | 28° |
| 2026-05-06 07:41 | 2.33259 | 106.28976 | 38153 ft | 488 kts | 28° |
| 2026-05-06 07:41 | 2.36273 | 106.30536 | 38400 ft | 487 kts | 28° |
| 2026-05-06 07:41 | 2.39266 | 106.32124 | 38582 ft | 486 kts | 31° |
| 2026-05-06 07:41 | 2.42075 | 106.33987 | 38767 ft | 484 kts | 39° |
| 2026-05-06 07:42 | 2.47293 | 106.38279 | 38814 ft | 485 kts | 42° |
| 2026-05-06 07:42 | 2.52342 | 106.42761 | 38816 ft | 485 kts | 43° |
| 2026-05-06 07:43 | 2.57377 | 106.47258 | 38818 ft | 485 kts | 43° |
| 2026-05-06 07:43 | 2.62419 | 106.51725 | 38816 ft | 485 kts | 42° |
| 2026-05-06 07:44 | 2.67448 | 106.56159 | 38815 ft | 484 kts | 42° |
| 2026-05-06 07:44 | 2.72510 | 106.60618 | 38815 ft | 484 kts | 42° |
| 2026-05-06 07:45 | 2.77565 | 106.65073 | 38814 ft | 484 kts | 42° |
| 2026-05-06 07:45 | 2.82621 | 106.69530 | 38813 ft | 484 kts | 42° |
| 2026-05-06 07:46 | 2.87670 | 106.73983 | 38814 ft | 484 kts | 42° |
| 2026-05-06 07:46 | 2.92722 | 106.78438 | 38812 ft | 484 kts | 42° |
| 2026-05-06 07:47 | 2.97770 | 106.82890 | 38812 ft | 484 kts | 42° |
| 2026-05-06 07:47 | 3.02814 | 106.87340 | 38817 ft | 484 kts | 42° |
| 2026-05-06 07:48 | 3.07864 | 106.91795 | 38816 ft | 483 kts | 42° |
| 2026-05-06 07:48 | 3.12908 | 106.96246 | 38817 ft | 483 kts | 42° |
| 2026-05-06 07:49 | 3.17952 | 107.00697 | 38813 ft | 483 kts | 42° |
| 2026-05-06 07:49 | 3.22994 | 107.05147 | 38813 ft | 483 kts | 43° |
| 2026-05-06 07:50 | 3.28008 | 107.09573 | 38812 ft | 483 kts | 43° |
| 2026-05-06 07:50 | 3.33051 | 107.14025 | 38813 ft | 483 kts | 43° |
| 2026-05-06 07:51 | 3.38093 | 107.18477 | 38813 ft | 483 kts | 43° |
| 2026-05-06 07:51 | 3.43136 | 107.22931 | 38813 ft | 483 kts | 43° |
| 2026-05-06 07:52 | 3.48179 | 107.27385 | 38809 ft | 483 kts | 43° |
| 2026-05-06 07:52 | 3.53223 | 107.31840 | 38808 ft | 483 kts | 43° |
| 2026-05-06 07:53 | 3.58265 | 107.36295 | 38813 ft | 483 kts | 43° |
| 2026-05-06 07:53 | 3.63314 | 107.40756 | 38813 ft | 483 kts | 43° |
| 2026-05-06 07:54 | 3.68356 | 107.45213 | 38811 ft | 483 kts | 43° |
| 2026-05-06 07:54 | 3.73399 | 107.49670 | 38811 ft | 483 kts | 43° |
| 2026-05-06 07:55 | 3.78410 | 107.54100 | 38814 ft | 483 kts | 43° |
| 2026-05-06 07:55 | 3.83452 | 107.58558 | 38812 ft | 483 kts | 43° |
| 2026-05-06 07:56 | 3.88496 | 107.63018 | 38812 ft | 483 kts | 43° |
| 2026-05-06 07:56 | 3.93541 | 107.67480 | 38810 ft | 483 kts | 43° |
| 2026-05-06 07:57 | 3.98585 | 107.71943 | 38809 ft | 483 kts | 43° |
| 2026-05-06 07:57 | 4.03620 | 107.76397 | 38810 ft | 483 kts | 43° |
| 2026-05-06 07:58 | 4.08663 | 107.80860 | 38813 ft | 484 kts | 43° |
| 2026-05-06 07:58 | 4.13708 | 107.85326 | 38810 ft | 484 kts | 43° |
| 2026-05-06 07:59 | 4.18757 | 107.89795 | 38813 ft | 484 kts | 42° |
| 2026-05-06 07:59 | 4.23799 | 107.94259 | 38812 ft | 484 kts | 42° |
| 2026-05-06 08:00 | 4.28848 | 107.98730 | 38810 ft | 484 kts | 42° |
| 2026-05-06 08:00 | 4.33855 | 108.03165 | 38810 ft | 484 kts | 42° |
| 2026-05-06 08:01 | 4.38898 | 108.07633 | 38808 ft | 484 kts | 42° |
| 2026-05-06 08:01 | 4.43943 | 108.12103 | 38809 ft | 484 kts | 42° |
| 2026-05-06 08:02 | 4.48984 | 108.16571 | 38809 ft | 484 kts | 42° |
| 2026-05-06 08:02 | 4.54034 | 108.21047 | 38809 ft | 484 kts | 42° |
| 2026-05-06 08:03 | 4.59068 | 108.25511 | 38811 ft | 484 kts | 42° |
| 2026-05-06 08:03 | 4.64107 | 108.29979 | 38812 ft | 483 kts | 42° |
| 2026-05-06 08:04 | 4.69149 | 108.34452 | 38815 ft | 483 kts | 42° |
| 2026-05-06 08:04 | 4.73943 | 108.39158 | 38813 ft | 483 kts | 50° |
| 2026-05-06 08:05 | 4.78247 | 108.44330 | 38814 ft | 483 kts | 51° |
| 2026-05-06 08:05 | 4.82474 | 108.49571 | 38812 ft | 483 kts | 51° |
| 2026-05-06 08:06 | 4.86690 | 108.54808 | 38814 ft | 483 kts | 51° |
| 2026-05-06 08:06 | 4.90896 | 108.60014 | 38810 ft | 483 kts | 51° |
| 2026-05-06 08:07 | 4.95131 | 108.65247 | 38814 ft | 483 kts | 51° |
| 2026-05-06 08:07 | 4.99370 | 108.70484 | 38813 ft | 483 kts | 51° |
| 2026-05-06 08:08 | 5.03603 | 108.75716 | 38813 ft | 483 kts | 51° |
| 2026-05-06 08:08 | 5.07830 | 108.80943 | 38814 ft | 483 kts | 50° |
| 2026-05-06 08:09 | 5.12059 | 108.86173 | 38814 ft | 482 kts | 50° |
| 2026-05-06 08:09 | 5.16291 | 108.91407 | 38812 ft | 483 kts | 50° |
| 2026-05-06 08:10 | 5.20516 | 108.96635 | 38812 ft | 483 kts | 50° |
| 2026-05-06 08:10 | 5.24718 | 109.01835 | 38813 ft | 483 kts | 50° |
| 2026-05-06 08:11 | 5.28946 | 109.07068 | 38814 ft | 483 kts | 50° |
| 2026-05-06 08:11 | 5.33178 | 109.12307 | 38813 ft | 482 kts | 51° |
| 2026-05-06 08:12 | 5.36692 | 109.16659 | 38811 ft | 482 kts | 51° |
| 2026-05-06 08:12 | 5.40912 | 109.21887 | 38811 ft | 482 kts | 51° |
| 2026-05-06 08:13 | 5.45128 | 109.27110 | 38811 ft | 482 kts | 51° |
| 2026-05-06 08:13 | 5.49347 | 109.32339 | 38813 ft | 481 kts | 51° |
| 2026-05-06 08:14 | 5.53562 | 109.37564 | 38812 ft | 482 kts | 51° |
| 2026-05-06 08:14 | 5.57776 | 109.42790 | 38814 ft | 482 kts | 51° |
| 2026-05-06 08:15 | 5.61992 | 109.48018 | 38813 ft | 482 kts | 51° |
| 2026-05-06 08:15 | 5.66210 | 109.53250 | 38814 ft | 482 kts | 51° |
| 2026-05-06 08:16 | 5.70431 | 109.58488 | 38816 ft | 482 kts | 51° |
| 2026-05-06 08:16 | 5.74649 | 109.63723 | 38816 ft | 482 kts | 51° |
| 2026-05-06 08:17 | 5.78843 | 109.68930 | 38816 ft | 482 kts | 51° |
| 2026-05-06 08:17 | 5.83057 | 109.74163 | 38815 ft | 482 kts | 51° |
| 2026-05-06 08:18 | 5.87273 | 109.79400 | 38815 ft | 481 kts | 51° |
| 2026-05-06 08:18 | 5.91477 | 109.84623 | 38816 ft | 481 kts | 51° |
| 2026-05-06 08:19 | 5.95683 | 109.89850 | 38816 ft | 480 kts | 51° |
| 2026-05-06 08:19 | 5.99882 | 109.95071 | 38815 ft | 480 kts | 51° |
| 2026-05-06 08:20 | 6.04079 | 110.00289 | 38810 ft | 480 kts | 51° |
| 2026-05-06 08:20 | 6.08271 | 110.05505 | 38811 ft | 480 kts | 51° |
| 2026-05-06 08:21 | 6.12446 | 110.10699 | 38815 ft | 480 kts | 51° |
| 2026-05-06 08:21 | 6.16645 | 110.15925 | 38816 ft | 480 kts | 51° |
| 2026-05-06 08:22 | 6.20844 | 110.21152 | 38815 ft | 480 kts | 51° |
| 2026-05-06 08:22 | 6.25038 | 110.26374 | 38815 ft | 480 kts | 51° |
| 2026-05-06 08:23 | 6.29238 | 110.31606 | 38815 ft | 480 kts | 51° |
| 2026-05-06 08:23 | 6.33434 | 110.36833 | 38815 ft | 480 kts | 51° |
| 2026-05-06 08:24 | 6.37631 | 110.42064 | 38814 ft | 481 kts | 51° |
| 2026-05-06 08:24 | 6.41805 | 110.47268 | 38818 ft | 481 kts | 51° |
| 2026-05-06 08:25 | 6.46004 | 110.52504 | 38817 ft | 482 kts | 52° |
| 2026-05-06 08:25 | 6.50215 | 110.57757 | 38815 ft | 482 kts | 52° |
| 2026-05-06 08:26 | 6.54425 | 110.63010 | 38817 ft | 482 kts | 52° |
| 2026-05-06 08:26 | 6.58636 | 110.68266 | 38815 ft | 483 kts | 52° |
| 2026-05-06 08:27 | 6.62850 | 110.73528 | 38813 ft | 483 kts | 52° |
| 2026-05-06 08:27 | 6.67064 | 110.78790 | 38818 ft | 483 kts | 52° |
| 2026-05-06 08:28 | 6.71284 | 110.84062 | 38815 ft | 483 kts | 52° |
| 2026-05-06 08:28 | 6.75496 | 110.89326 | 38817 ft | 483 kts | 51° |
| 2026-05-06 08:29 | 6.79682 | 110.94559 | 38816 ft | 483 kts | 51° |
| 2026-05-06 08:29 | 6.83898 | 110.99830 | 38814 ft | 484 kts | 51° |
| 2026-05-06 08:30 | 6.88122 | 111.05114 | 38814 ft | 484 kts | 51° |
| 2026-05-06 08:30 | 6.92344 | 111.10396 | 38814 ft | 484 kts | 51° |
| 2026-05-06 08:31 | 6.96568 | 111.15683 | 38818 ft | 485 kts | 51° |
| 2026-05-06 08:31 | 7.00793 | 111.20972 | 38817 ft | 484 kts | 51° |
| 2026-05-06 08:32 | 7.05017 | 111.26263 | 38815 ft | 484 kts | 51° |
| 2026-05-06 08:32 | 7.09239 | 111.31552 | 38814 ft | 484 kts | 51° |
| 2026-05-06 08:33 | 7.13431 | 111.36806 | 38819 ft | 484 kts | 51° |
| 2026-05-06 08:33 | 7.17651 | 111.42096 | 38818 ft | 484 kts | 51° |
| 2026-05-06 08:34 | 7.23971 | 111.50022 | 38814 ft | 484 kts | 51° |
| 2026-05-06 08:35 | 7.28186 | 111.55312 | 38961 ft | 484 kts | 51° |
| 2026-05-06 08:35 | 7.30282 | 111.57953 | 39166 ft | 483 kts | 51° |
| 2026-05-06 08:35 | 7.32369 | 111.60593 | 39349 ft | 482 kts | 52° |
| 2026-05-06 08:35 | 7.34455 | 111.63235 | 39513 ft | 482 kts | 52° |
| 2026-05-06 08:36 | 7.36540 | 111.65876 | 39667 ft | 481 kts | 52° |
| 2026-05-06 08:36 | 7.38625 | 111.68518 | 39791 ft | 482 kts | 52° |
| 2026-05-06 08:36 | 7.40714 | 111.71163 | 39825 ft | 482 kts | 51° |
| 2026-05-06 08:37 | 7.44886 | 111.76445 | 39824 ft | 482 kts | 51° |
| 2026-05-06 08:37 | 7.49065 | 111.81737 | 39809 ft | 481 kts | 51° |
| 2026-05-06 08:38 | 7.53239 | 111.87024 | 39810 ft | 482 kts | 52° |
| 2026-05-06 08:38 | 7.57412 | 111.92311 | 39821 ft | 481 kts | 52° |
| 2026-05-06 08:39 | 7.61581 | 111.97596 | 39809 ft | 481 kts | 52° |
| 2026-05-06 08:39 | 7.65752 | 112.02885 | 39807 ft | 482 kts | 52° |
| 2026-05-06 08:40 | 7.69888 | 112.08131 | 39822 ft | 481 kts | 52° |
| 2026-05-06 08:40 | 7.74059 | 112.13423 | 39822 ft | 481 kts | 52° |
| 2026-05-06 08:41 | 7.78223 | 112.18709 | 39805 ft | 481 kts | 52° |
| 2026-05-06 08:41 | 7.82394 | 112.24005 | 39807 ft | 481 kts | 52° |
| 2026-05-06 08:42 | 7.86559 | 112.29295 | 39821 ft | 481 kts | 52° |
| 2026-05-06 08:42 | 7.90723 | 112.34587 | 39824 ft | 482 kts | 52° |
| 2026-05-06 08:43 | 7.94892 | 112.39887 | 39803 ft | 482 kts | 52° |
| 2026-05-06 08:43 | 7.99058 | 112.45185 | 39818 ft | 482 kts | 52° |
| 2026-05-06 08:44 | 8.03200 | 112.50453 | 39825 ft | 482 kts | 52° |
| 2026-05-06 08:44 | 8.07370 | 112.55760 | 39807 ft | 482 kts | 52° |
| 2026-05-06 08:45 | 8.11540 | 112.61069 | 39810 ft | 483 kts | 52° |
| 2026-05-06 08:45 | 8.15708 | 112.66377 | 39823 ft | 483 kts | 52° |
| 2026-05-06 08:46 | 8.19872 | 112.71682 | 39825 ft | 483 kts | 52° |
| 2026-05-06 08:46 | 8.24052 | 112.77009 | 39807 ft | 483 kts | 52° |
| 2026-05-06 08:47 | 8.28227 | 112.82332 | 39809 ft | 483 kts | 52° |
| 2026-05-06 08:47 | 8.32404 | 112.87659 | 39825 ft | 484 kts | 52° |
| 2026-05-06 08:48 | 8.36581 | 112.92988 | 39824 ft | 484 kts | 52° |
| 2026-05-06 08:48 | 8.40759 | 112.98321 | 39808 ft | 484 kts | 52° |
| 2026-05-06 08:49 | 8.44943 | 113.03663 | 39825 ft | 485 kts | 52° |
| 2026-05-06 08:49 | 8.49105 | 113.08980 | 39822 ft | 486 kts | 52° |
| 2026-05-06 08:50 | 8.53300 | 113.14342 | 39811 ft | 487 kts | 52° |
| 2026-05-06 08:50 | 8.57498 | 113.19707 | 39825 ft | 487 kts | 52° |
| 2026-05-06 08:51 | 8.61700 | 113.25083 | 39828 ft | 487 kts | 52° |
| 2026-05-06 08:51 | 8.65903 | 113.30460 | 39827 ft | 487 kts | 52° |
| 2026-05-06 08:52 | 8.70105 | 113.35839 | 39822 ft | 487 kts | 51° |
| 2026-05-06 08:52 | 8.74304 | 113.41215 | 39811 ft | 487 kts | 51° |
| 2026-05-06 08:53 | 8.78499 | 113.46590 | 39825 ft | 487 kts | 51° |
| 2026-05-06 08:53 | 8.82699 | 113.51972 | 39810 ft | 486 kts | 51° |
| 2026-05-06 08:54 | 8.86857 | 113.57303 | 39828 ft | 486 kts | 51° |
| 2026-05-06 08:54 | 8.91044 | 113.62672 | 39827 ft | 485 kts | 51° |
| 2026-05-06 08:55 | 8.95229 | 113.68040 | 39824 ft | 486 kts | 51° |
| 2026-05-06 08:55 | 8.99423 | 113.73424 | 39825 ft | 487 kts | 51° |
| 2026-05-06 08:56 | 9.03618 | 113.78811 | 39829 ft | 488 kts | 52° |
| 2026-05-06 08:56 | 9.07111 | 113.83299 | 39825 ft | 489 kts | 51° |
| 2026-05-06 08:57 | 9.12008 | 113.89594 | 39827 ft | 490 kts | 51° |
| 2026-05-06 08:57 | 9.16227 | 113.95017 | 39811 ft | 490 kts | 51° |
| 2026-05-06 08:58 | 9.19760 | 113.99563 | 39827 ft | 491 kts | 51° |
| 2026-05-06 08:58 | 9.23980 | 114.04994 | 39827 ft | 491 kts | 51° |
| 2026-05-06 08:59 | 9.28175 | 114.10393 | 39827 ft | 491 kts | 51° |
| 2026-05-06 08:59 | 9.32395 | 114.15828 | 39829 ft | 491 kts | 51° |
| 2026-05-06 09:00 | 9.36621 | 114.21273 | 39827 ft | 491 kts | 51° |
| 2026-05-06 09:00 | 9.40836 | 114.26707 | 39826 ft | 491 kts | 51° |
| 2026-05-06 09:01 | 9.45061 | 114.32157 | 39811 ft | 492 kts | 51° |
| 2026-05-06 09:01 | 9.49286 | 114.37607 | 39825 ft | 492 kts | 51° |
| 2026-05-06 09:02 | 9.53508 | 114.43055 | 39824 ft | 492 kts | 51° |
| 2026-05-06 09:02 | 9.57735 | 114.48515 | 39830 ft | 492 kts | 51° |
| 2026-05-06 09:03 | 9.61957 | 114.53970 | 39813 ft | 492 kts | 51° |
| 2026-05-06 09:03 | 9.66182 | 114.59431 | 39828 ft | 492 kts | 51° |
| 2026-05-06 09:04 | 9.70406 | 114.64892 | 39835 ft | 492 kts | 51° |
| 2026-05-06 09:04 | 9.74627 | 114.70354 | 39815 ft | 492 kts | 51° |
| 2026-05-06 09:05 | 9.78827 | 114.75789 | 39833 ft | 492 kts | 51° |
| 2026-05-06 09:05 | 9.83051 | 114.81260 | 39835 ft | 492 kts | 51° |
| 2026-05-06 09:06 | 9.87281 | 114.86720 | 39818 ft | 492 kts | 51° |
| 2026-05-06 09:06 | 9.91521 | 114.92177 | 39832 ft | 492 kts | 51° |
| 2026-05-06 09:07 | 9.95761 | 114.97638 | 39835 ft | 492 kts | 51° |
| 2026-05-06 09:07 | 10.00000 | 115.03106 | 39818 ft | 493 kts | 51° |
| 2026-05-06 09:08 | 10.04209 | 115.08540 | 39835 ft | 493 kts | 51° |
| 2026-05-06 09:08 | 10.08448 | 115.14014 | 39817 ft | 493 kts | 51° |
| 2026-05-06 09:09 | 10.12685 | 115.19488 | 39838 ft | 493 kts | 51° |
| 2026-05-06 09:09 | 10.16929 | 115.24974 | 39838 ft | 494 kts | 51° |
| 2026-05-06 09:10 | 10.21174 | 115.30464 | 39834 ft | 494 kts | 51° |
| 2026-05-06 09:10 | 10.25417 | 115.35953 | 39838 ft | 494 kts | 51° |
| 2026-05-06 09:11 | 10.29668 | 115.41455 | 39838 ft | 495 kts | 51° |
| 2026-05-06 09:11 | 10.33913 | 115.46954 | 39839 ft | 495 kts | 51° |
| 2026-05-06 09:12 | 10.38133 | 115.52422 | 39825 ft | 495 kts | 51° |
| 2026-05-06 09:12 | 10.42383 | 115.57931 | 39844 ft | 495 kts | 51° |
| 2026-05-06 09:13 | 10.46633 | 115.63443 | 39829 ft | 495 kts | 51° |
| 2026-05-06 09:13 | 10.50882 | 115.68957 | 39841 ft | 496 kts | 51° |
| 2026-05-06 09:14 | 10.55135 | 115.74478 | 39841 ft | 496 kts | 51° |
| 2026-05-06 09:14 | 10.59384 | 115.79999 | 39827 ft | 496 kts | 51° |
| 2026-05-06 09:15 | 10.63635 | 115.85523 | 39842 ft | 496 kts | 51° |
| 2026-05-06 09:15 | 10.67883 | 115.91046 | 39843 ft | 496 kts | 51° |
| 2026-05-06 09:16 | 10.72132 | 115.96573 | 39829 ft | 496 kts | 51° |
| 2026-05-06 09:16 | 10.76383 | 116.02107 | 39839 ft | 496 kts | 51° |
| 2026-05-06 09:17 | 10.80633 | 116.07642 | 39846 ft | 496 kts | 51° |
| 2026-05-06 09:17 | 10.84882 | 116.13177 | 39830 ft | 496 kts | 51° |
| 2026-05-06 09:18 | 10.89101 | 116.18677 | 39827 ft | 497 kts | 51° |
| 2026-05-06 09:18 | 10.93351 | 116.24221 | 39846 ft | 497 kts | 51° |
| 2026-05-06 09:19 | 10.97604 | 116.29771 | 39847 ft | 497 kts | 51° |
| 2026-05-06 09:19 | 11.01854 | 116.35321 | 39834 ft | 497 kts | 51° |
| 2026-05-06 09:20 | 11.06103 | 116.40871 | 39832 ft | 497 kts | 51° |
| 2026-05-06 09:20 | 11.10355 | 116.46422 | 39831 ft | 497 kts | 51° |
| 2026-05-06 09:21 | 11.15318 | 116.51261 | 39834 ft | 494 kts | 33° |
| 2026-05-06 09:21 | 11.21066 | 116.54138 | 39836 ft | 490 kts | 15° |
| 2026-05-06 09:22 | 11.27758 | 116.55387 | 39841 ft | 489 kts | 6° |
| 2026-05-06 09:22 | 11.34530 | 116.56194 | 39847 ft | 490 kts | 5° |
| 2026-05-06 09:23 | 11.41309 | 116.56971 | 39835 ft | 490 kts | 5° |
| 2026-05-06 09:23 | 11.48082 | 116.57784 | 39839 ft | 490 kts | 6° |
| 2026-05-06 09:24 | 11.54849 | 116.58620 | 39852 ft | 490 kts | 6° |
| 2026-05-06 09:24 | 11.61614 | 116.59460 | 39837 ft | 490 kts | 6° |
| 2026-05-06 09:25 | 11.68378 | 116.60299 | 39839 ft | 490 kts | 6° |
| 2026-05-06 09:25 | 11.75146 | 116.61137 | 39846 ft | 490 kts | 6° |
| 2026-05-06 09:26 | 11.81910 | 116.61976 | 39845 ft | 489 kts | 6° |
| 2026-05-06 09:26 | 11.88672 | 116.62814 | 39845 ft | 489 kts | 5° |
| 2026-05-06 09:27 | 11.95438 | 116.63654 | 39846 ft | 489 kts | 5° |
| 2026-05-06 09:27 | 12.02199 | 116.64493 | 39848 ft | 489 kts | 5° |
| 2026-05-06 09:28 | 12.08953 | 116.65332 | 39847 ft | 489 kts | 5° |
| 2026-05-06 09:28 | 12.15712 | 116.66172 | 39848 ft | 489 kts | 5° |
| 2026-05-06 09:29 | 12.22427 | 116.67006 | 39850 ft | 489 kts | 5° |
| 2026-05-06 09:29 | 12.29186 | 116.67847 | 39854 ft | 489 kts | 5° |
| 2026-05-06 09:30 | 12.35986 | 116.68694 | 39855 ft | 489 kts | 5° |
| 2026-05-06 09:30 | 12.42741 | 116.69535 | 39852 ft | 489 kts | 5° |
| 2026-05-06 09:31 | 12.49447 | 116.70370 | 39852 ft | 489 kts | 5° |
| 2026-05-06 09:31 | 12.56207 | 116.71213 | 39855 ft | 489 kts | 5° |
| 2026-05-06 09:32 | 12.62957 | 116.72055 | 39852 ft | 489 kts | 5° |
| 2026-05-06 09:32 | 12.69706 | 116.72897 | 39857 ft | 488 kts | 5° |
| 2026-05-06 09:33 | 12.76458 | 116.73740 | 39856 ft | 488 kts | 5° |
| 2026-05-06 09:33 | 12.83207 | 116.74586 | 39855 ft | 488 kts | 5° |
| 2026-05-06 09:34 | 12.89947 | 116.75427 | 39861 ft | 488 kts | 5° |
| 2026-05-06 09:34 | 12.96690 | 116.76269 | 39860 ft | 488 kts | 5° |
| 2026-05-06 09:35 | 13.03389 | 116.77106 | 39858 ft | 487 kts | 5° |
| 2026-05-06 09:35 | 13.10116 | 116.77948 | 39855 ft | 487 kts | 5° |
| 2026-05-06 09:36 | 13.16850 | 116.78792 | 39855 ft | 487 kts | 5° |
| 2026-05-06 09:36 | 13.23576 | 116.79635 | 39860 ft | 487 kts | 5° |
| 2026-05-06 09:37 | 13.30307 | 116.80479 | 39861 ft | 487 kts | 5° |
| 2026-05-06 09:37 | 13.37040 | 116.81324 | 39858 ft | 487 kts | 5° |
| 2026-05-06 09:38 | 13.43768 | 116.82169 | 39854 ft | 487 kts | 5° |
| 2026-05-06 09:38 | 13.50490 | 116.83013 | 39858 ft | 487 kts | 5° |
| 2026-05-06 09:39 | 13.57211 | 116.83858 | 39859 ft | 486 kts | 5° |
| 2026-05-06 09:39 | 13.63933 | 116.84703 | 39859 ft | 486 kts | 5° |
| 2026-05-06 09:40 | 13.70613 | 116.85544 | 39859 ft | 486 kts | 5° |
| 2026-05-06 09:40 | 13.80677 | 116.86811 | 39859 ft | 486 kts | 5° |
| 2026-05-06 09:41 | 13.87397 | 116.87658 | 39861 ft | 486 kts | 5° |
| 2026-05-06 09:41 | 13.94107 | 116.88504 | 39860 ft | 486 kts | 6° |
| 2026-05-06 09:42 | 14.00828 | 116.89352 | 39863 ft | 486 kts | 6° |
| 2026-05-06 09:42 | 14.07543 | 116.90200 | 39863 ft | 486 kts | 6° |
| 2026-05-06 09:43 | 14.14254 | 116.91048 | 39864 ft | 486 kts | 6° |
| 2026-05-06 09:43 | 14.20925 | 116.91893 | 39865 ft | 486 kts | 6° |
| 2026-05-06 09:44 | 14.27634 | 116.92746 | 39864 ft | 486 kts | 6° |
| 2026-05-06 09:44 | 14.34347 | 116.93591 | 39868 ft | 486 kts | 6° |
| 2026-05-06 09:45 | 14.41063 | 116.94439 | 39867 ft | 486 kts | 6° |
| 2026-05-06 09:45 | 14.47777 | 116.95289 | 39866 ft | 486 kts | 6° |
| 2026-05-06 09:46 | 14.54488 | 116.96140 | 39867 ft | 486 kts | 6° |
| 2026-05-06 09:46 | 14.61200 | 116.96991 | 39869 ft | 486 kts | 6° |
| 2026-05-06 09:47 | 14.67920 | 116.97844 | 39868 ft | 486 kts | 6° |
| 2026-05-06 09:47 | 14.74633 | 116.98697 | 39866 ft | 486 kts | 6° |
| 2026-05-06 09:48 | 14.81351 | 116.99551 | 39868 ft | 486 kts | 6° |
| 2026-05-06 09:48 | 14.88072 | 117.00405 | 39870 ft | 486 kts | 6° |
| 2026-05-06 09:49 | 14.94753 | 117.01256 | 39868 ft | 487 kts | 6° |
| 2026-05-06 09:49 | 15.01476 | 117.02112 | 39869 ft | 487 kts | 6° |
| 2026-05-06 09:50 | 15.08198 | 117.02968 | 39869 ft | 487 kts | 6° |
| 2026-05-06 09:50 | 15.14916 | 117.03825 | 39872 ft | 487 kts | 6° |
| 2026-05-06 09:51 | 15.21641 | 117.04682 | 39874 ft | 487 kts | 6° |
| 2026-05-06 09:51 | 15.28367 | 117.05541 | 39874 ft | 487 kts | 6° |
| 2026-05-06 09:52 | 15.35101 | 117.06401 | 39873 ft | 487 kts | 6° |
| 2026-05-06 09:52 | 15.41831 | 117.07261 | 39875 ft | 487 kts | 6° |
| 2026-05-06 09:53 | 15.48560 | 117.08122 | 39872 ft | 487 kts | 6° |
| 2026-05-06 09:53 | 15.55291 | 117.08983 | 39872 ft | 487 kts | 6° |
| 2026-05-06 09:54 | 15.61983 | 117.09840 | 39874 ft | 488 kts | 6° |
| 2026-05-06 09:54 | 15.68716 | 117.10703 | 39870 ft | 488 kts | 6° |
| 2026-05-06 09:55 | 15.75459 | 117.11567 | 39876 ft | 488 kts | 6° |
| 2026-05-06 09:55 | 15.82203 | 117.12433 | 39877 ft | 488 kts | 6° |
| 2026-05-06 09:56 | 15.88954 | 117.13300 | 39876 ft | 488 kts | 6° |
| 2026-05-06 09:56 | 15.95702 | 117.14167 | 39875 ft | 488 kts | 6° |
| 2026-05-06 09:57 | 16.02442 | 117.15033 | 39878 ft | 488 kts | 6° |
| 2026-05-06 09:57 | 16.09186 | 117.15901 | 39878 ft | 488 kts | 6° |
| 2026-05-06 09:58 | 16.15917 | 117.16768 | 39878 ft | 488 kts | 5° |
| 2026-05-06 09:58 | 16.21517 | 117.17490 | 39878 ft | 487 kts | 5° |
| 2026-05-06 09:59 | 16.29346 | 117.18499 | 39880 ft | 487 kts | 5° |
| 2026-05-06 09:59 | 16.36082 | 117.19368 | 39879 ft | 487 kts | 5° |
| 2026-05-06 10:00 | 16.42731 | 117.20731 | 39878 ft | 489 kts | 17° |
| 2026-05-06 10:00 | 16.47817 | 117.23322 | 39881 ft | 492 kts | 33° |
| 2026-05-06 10:01 | 16.52902 | 117.28093 | 39880 ft | 495 kts | 45° |
| 2026-05-06 10:01 | 16.57576 | 117.33377 | 39877 ft | 496 kts | 46° |
| 2026-05-06 10:02 | 16.62208 | 117.38718 | 39880 ft | 496 kts | 46° |
| 2026-05-06 10:02 | 16.66858 | 117.44031 | 39880 ft | 496 kts | 46° |
| 2026-05-06 10:03 | 16.71525 | 117.49327 | 39881 ft | 496 kts | 46° |
| 2026-05-06 10:03 | 16.76202 | 117.54629 | 39884 ft | 496 kts | 46° |
| 2026-05-06 10:04 | 16.80875 | 117.59931 | 39885 ft | 496 kts | 45° |
| 2026-05-06 10:04 | 16.85547 | 117.65239 | 39879 ft | 496 kts | 46° |
| 2026-05-06 10:05 | 16.90195 | 117.70523 | 39881 ft | 497 kts | 45° |
| 2026-05-06 10:05 | 16.94870 | 117.75843 | 39883 ft | 497 kts | 45° |
| 2026-05-06 10:06 | 16.99543 | 117.81165 | 39880 ft | 497 kts | 45° |
| 2026-05-06 10:06 | 17.04216 | 117.86491 | 39881 ft | 497 kts | 45° |
| 2026-05-06 10:07 | 17.08888 | 117.91820 | 39880 ft | 497 kts | 45° |
| 2026-05-06 10:07 | 17.13532 | 117.97123 | 39880 ft | 497 kts | 45° |
| 2026-05-06 10:08 | 17.18203 | 118.02459 | 39884 ft | 497 kts | 45° |
| 2026-05-06 10:08 | 17.22883 | 118.07810 | 39887 ft | 498 kts | 45° |
| 2026-05-06 10:09 | 17.27551 | 118.13152 | 39879 ft | 498 kts | 45° |
| 2026-05-06 10:09 | 17.32230 | 118.18510 | 39885 ft | 498 kts | 45° |
| 2026-05-06 10:10 | 17.36900 | 118.23863 | 39881 ft | 498 kts | 45° |
| 2026-05-06 10:10 | 17.41548 | 118.29195 | 39884 ft | 498 kts | 45° |
| 2026-05-06 10:11 | 17.46219 | 118.34558 | 39890 ft | 499 kts | 45° |
| 2026-05-06 10:11 | 17.50894 | 118.39929 | 39886 ft | 499 kts | 45° |
| 2026-05-06 10:12 | 17.55571 | 118.45308 | 39885 ft | 499 kts | 45° |
| 2026-05-06 10:12 | 17.60250 | 118.50693 | 39889 ft | 499 kts | 45° |
| 2026-05-06 10:13 | 17.64925 | 118.56078 | 39890 ft | 500 kts | 45° |
| 2026-05-06 10:13 | 17.69604 | 118.61472 | 39885 ft | 500 kts | 45° |
| 2026-05-06 10:14 | 17.74284 | 118.66872 | 39881 ft | 500 kts | 45° |
| 2026-05-06 10:14 | 17.78963 | 118.72275 | 39884 ft | 500 kts | 45° |
| 2026-05-06 10:15 | 17.83649 | 118.77691 | 39889 ft | 501 kts | 45° |
| 2026-05-06 10:15 | 17.88329 | 118.83104 | 39882 ft | 501 kts | 45° |
| 2026-05-06 10:16 | 17.92979 | 118.88488 | 39886 ft | 501 kts | 45° |
| 2026-05-06 10:16 | 17.97664 | 118.93916 | 39891 ft | 501 kts | 46° |
| 2026-05-06 10:17 | 18.02348 | 118.99345 | 39884 ft | 502 kts | 46° |
| 2026-05-06 10:17 | 18.07031 | 119.04780 | 39888 ft | 502 kts | 46° |
| 2026-05-06 10:18 | 18.11717 | 119.10227 | 39896 ft | 502 kts | 46° |
| 2026-05-06 10:18 | 18.16405 | 119.15678 | 39886 ft | 502 kts | 46° |
| 2026-05-06 10:19 | 18.21088 | 119.21129 | 39892 ft | 502 kts | 46° |
| 2026-05-06 10:19 | 18.25774 | 119.26587 | 39890 ft | 502 kts | 46° |
| 2026-05-06 10:20 | 18.30461 | 119.32051 | 39898 ft | 503 kts | 46° |
| 2026-05-06 10:20 | 18.35145 | 119.37516 | 39899 ft | 503 kts | 46° |
| 2026-05-06 10:21 | 18.39834 | 119.42992 | 39881 ft | 503 kts | 46° |
| 2026-05-06 10:21 | 18.44487 | 119.48431 | 39882 ft | 503 kts | 46° |
| 2026-05-06 10:22 | 18.49182 | 119.53925 | 39902 ft | 504 kts | 46° |
| 2026-05-06 10:22 | 18.53874 | 119.59418 | 39903 ft | 504 kts | 46° |
| 2026-05-06 10:23 | 18.58564 | 119.64915 | 39908 ft | 504 kts | 46° |
| 2026-05-06 10:23 | 18.63223 | 119.70385 | 39894 ft | 504 kts | 46° |
| 2026-05-06 10:24 | 18.67918 | 119.75896 | 39895 ft | 505 kts | 46° |
| 2026-05-06 10:24 | 18.72611 | 119.81408 | 39898 ft | 505 kts | 46° |
| 2026-05-06 10:25 | 18.77305 | 119.86927 | 39899 ft | 505 kts | 46° |
| 2026-05-06 10:25 | 18.82003 | 119.92457 | 39901 ft | 505 kts | 46° |
| 2026-05-06 10:26 | 18.86699 | 119.97991 | 39901 ft | 506 kts | 46° |
| 2026-05-06 10:26 | 18.91395 | 120.03529 | 39902 ft | 506 kts | 46° |
| 2026-05-06 10:27 | 18.96091 | 120.09073 | 39898 ft | 506 kts | 46° |
| 2026-05-06 10:27 | 19.00761 | 120.14591 | 39901 ft | 507 kts | 46° |
| 2026-05-06 10:28 | 19.05461 | 120.20149 | 39903 ft | 507 kts | 46° |
| 2026-05-06 10:28 | 19.10160 | 120.25712 | 39905 ft | 508 kts | 46° |
| 2026-05-06 10:29 | 19.14870 | 120.31291 | 39904 ft | 508 kts | 46° |
| 2026-05-06 10:29 | 19.19581 | 120.36878 | 39903 ft | 509 kts | 46° |
| 2026-05-06 10:30 | 19.24292 | 120.42471 | 39906 ft | 509 kts | 46° |
| 2026-05-06 10:30 | 19.29006 | 120.48071 | 39907 ft | 509 kts | 46° |
| 2026-05-06 10:31 | 19.33719 | 120.53676 | 39906 ft | 510 kts | 46° |
| 2026-05-06 10:31 | 19.38718 | 120.58960 | 39908 ft | 506 kts | 34° |
| 2026-05-06 10:32 | 19.44834 | 120.62453 | 40121 ft | 498 kts | 15° |
| 2026-05-06 10:32 | 19.48176 | 120.63321 | 40302 ft | 492 kts | 5° |
| 2026-05-06 10:32 | 19.51523 | 120.63745 | 40488 ft | 490 kts | 2° |
| 2026-05-06 10:33 | 19.54910 | 120.64056 | 40684 ft | 488 kts | 1° |
| 2026-05-06 10:33 | 19.58300 | 120.64314 | 40854 ft | 488 kts | 0° |
| 2026-05-06 10:33 | 19.65073 | 120.64802 | 40914 ft | 487 kts | 0° |
| 2026-05-06 10:34 | 19.71835 | 120.65320 | 40912 ft | 487 kts | 1° |
| 2026-05-06 10:34 | 19.78593 | 120.65864 | 40916 ft | 487 kts | 1° |
| 2026-05-06 10:35 | 19.85360 | 120.66418 | 40916 ft | 487 kts | 1° |
| 2026-05-06 10:35 | 19.92125 | 120.66971 | 40918 ft | 487 kts | 1° |
| 2026-05-06 10:36 | 19.98887 | 120.67524 | 40919 ft | 487 kts | 1° |
| 2026-05-06 10:36 | 20.05608 | 120.68073 | 40916 ft | 487 kts | 1° |
| 2026-05-06 10:37 | 20.12359 | 120.68625 | 40920 ft | 487 kts | 1° |
| 2026-05-06 10:37 | 20.19115 | 120.69177 | 40922 ft | 487 kts | 0° |
| 2026-05-06 10:38 | 20.25871 | 120.69731 | 40923 ft | 487 kts | 0° |
| 2026-05-06 10:38 | 20.32634 | 120.70285 | 40923 ft | 487 kts | 0° |
| 2026-05-06 10:39 | 20.39388 | 120.70839 | 40923 ft | 487 kts | 0° |
| 2026-05-06 10:39 | 20.46145 | 120.71394 | 40924 ft | 487 kts | 0° |
| 2026-05-06 10:40 | 20.52901 | 120.71949 | 40929 ft | 487 kts | 0° |
| 2026-05-06 10:40 | 20.59662 | 120.72505 | 40929 ft | 487 kts | 0° |
| 2026-05-06 10:41 | 20.66377 | 120.73058 | 40928 ft | 487 kts | 0° |
| 2026-05-06 10:41 | 20.73129 | 120.73615 | 40928 ft | 487 kts | 0° |
| 2026-05-06 10:42 | 20.79887 | 120.74172 | 40929 ft | 487 kts | 0° |
| 2026-05-06 10:42 | 20.86639 | 120.74730 | 40932 ft | 487 kts | 0° |
| 2026-05-06 10:43 | 20.93395 | 120.75288 | 40934 ft | 487 kts | 360° |
| 2026-05-06 10:44 | 21.03537 | 120.76138 | 40933 ft | 487 kts | 0° |
| 2026-05-06 10:44 | 21.10247 | 120.76754 | 40932 ft | 487 kts | 0° |
| 2026-05-06 10:45 | 21.16997 | 120.77383 | 40935 ft | 487 kts | 0° |
| 2026-05-06 10:45 | 21.23763 | 120.78007 | 40940 ft | 487 kts | 0° |
| 2026-05-06 10:46 | 21.30520 | 120.78627 | 40939 ft | 487 kts | 0° |
| 2026-05-06 10:46 | 21.37281 | 120.79247 | 40937 ft | 488 kts | 0° |
| 2026-05-06 10:47 | 21.44049 | 120.79868 | 40940 ft | 488 kts | 360° |
| 2026-05-06 10:47 | 21.50811 | 120.80489 | 40941 ft | 488 kts | 360° |
| 2026-05-06 10:48 | 21.57584 | 120.81112 | 40945 ft | 488 kts | 360° |
| 2026-05-06 10:48 | 21.64359 | 120.81736 | 40947 ft | 488 kts | 360° |
| 2026-05-06 10:49 | 21.71084 | 120.82356 | 40940 ft | 488 kts | 360° |
| 2026-05-06 10:49 | 21.76765 | 120.82880 | 40946 ft | 489 kts | 359° |
| 2026-05-06 10:50 | 21.83503 | 120.83503 | 40948 ft | 489 kts | 359° |
| 2026-05-06 10:50 | 21.90262 | 120.83795 | 40951 ft | 482 kts | 350° |
| 2026-05-06 10:51 | 21.96681 | 120.82227 | 40955 ft | 467 kts | 332° |
| 2026-05-06 10:51 | 22.02591 | 120.79338 | 40950 ft | 466 kts | 329° |
| 2026-05-06 10:52 | 22.08406 | 120.76252 | 40950 ft | 466 kts | 328° |
| 2026-05-06 10:52 | 22.14220 | 120.73159 | 40956 ft | 466 kts | 329° |
| 2026-05-06 10:53 | 22.20011 | 120.70105 | 40956 ft | 466 kts | 329° |
| 2026-05-06 10:53 | 22.25879 | 120.67024 | 40955 ft | 466 kts | 329° |
| 2026-05-06 10:54 | 22.31676 | 120.63980 | 40951 ft | 466 kts | 329° |
| 2026-05-06 10:54 | 22.37521 | 120.60907 | 40939 ft | 467 kts | 329° |
| 2026-05-06 10:55 | 22.43355 | 120.57836 | 40932 ft | 466 kts | 328° |
| 2026-05-06 10:55 | 22.49195 | 120.54758 | 40925 ft | 467 kts | 328° |
| 2026-05-06 10:56 | 22.55031 | 120.51680 | 40924 ft | 467 kts | 328° |
| 2026-05-06 10:56 | 22.60868 | 120.48599 | 40925 ft | 467 kts | 328° |
| 2026-05-06 10:57 | 22.66667 | 120.45534 | 40926 ft | 467 kts | 328° |
| 2026-05-06 10:57 | 22.72501 | 120.42449 | 40925 ft | 467 kts | 328° |
| 2026-05-06 10:58 | 22.78344 | 120.39356 | 40930 ft | 467 kts | 328° |
| 2026-05-06 10:58 | 22.84186 | 120.36261 | 40950 ft | 467 kts | 328° |
| 2026-05-06 10:59 | 22.90018 | 120.33166 | 40958 ft | 467 kts | 328° |
| 2026-05-06 10:59 | 22.95850 | 120.30059 | 40954 ft | 467 kts | 328° |
| 2026-05-06 11:00 | 23.01680 | 120.26951 | 40950 ft | 467 kts | 328° |
| 2026-05-06 11:00 | 23.07571 | 120.23959 | 40951 ft | 472 kts | 333° |
| 2026-05-06 11:01 | 23.14023 | 120.22424 | 40950 ft | 487 kts | 351° |
| 2026-05-06 11:01 | 23.20859 | 120.23250 | 40954 ft | 505 kts | 10° |
| 2026-05-06 11:02 | 23.27601 | 120.25567 | 40953 ft | 510 kts | 13° |
| 2026-05-06 11:02 | 23.34324 | 120.28090 | 40955 ft | 512 kts | 13° |
| 2026-05-06 11:03 | 23.41068 | 120.30599 | 40958 ft | 512 kts | 12° |
| 2026-05-06 11:03 | 23.47835 | 120.33075 | 40962 ft | 513 kts | 12° |
| 2026-05-06 11:04 | 23.54617 | 120.35544 | 40962 ft | 514 kts | 12° |
| 2026-05-06 11:04 | 23.61348 | 120.37997 | 40962 ft | 514 kts | 12° |
| 2026-05-06 11:05 | 23.68139 | 120.40467 | 40962 ft | 514 kts | 12° |
| 2026-05-06 11:05 | 23.74928 | 120.42933 | 40965 ft | 514 kts | 12° |
| 2026-05-06 11:06 | 23.81725 | 120.45408 | 40965 ft | 514 kts | 12° |
| 2026-05-06 11:06 | 23.88511 | 120.47883 | 40965 ft | 515 kts | 12° |
| 2026-05-06 11:07 | 23.95303 | 120.50376 | 40962 ft | 515 kts | 12° |
| 2026-05-06 11:07 | 24.02093 | 120.52877 | 40971 ft | 515 kts | 12° |
| 2026-05-06 11:08 | 24.08895 | 120.55376 | 40977 ft | 515 kts | 12° |
| 2026-05-06 11:08 | 24.15700 | 120.57863 | 40981 ft | 515 kts | 12° |
| 2026-05-06 11:09 | 24.22492 | 120.60357 | 40980 ft | 515 kts | 12° |
| 2026-05-06 11:09 | 24.29250 | 120.62845 | 40982 ft | 515 kts | 12° |
| 2026-05-06 11:10 | 24.36043 | 120.65350 | 40981 ft | 515 kts | 12° |
| 2026-05-06 11:10 | 24.42838 | 120.67856 | 40978 ft | 515 kts | 12° |
| 2026-05-06 11:11 | 24.49635 | 120.70368 | 40974 ft | 516 kts | 12° |
| 2026-05-06 11:11 | 24.56119 | 120.73926 | 40973 ft | 531 kts | 31° |
| 2026-05-06 11:11 | 24.58938 | 120.76586 | 40982 ft | 538 kts | 42° |
| 2026-05-06 11:12 | 24.61495 | 120.79604 | 40978 ft | 540 kts | 44° |
| 2026-05-06 11:12 | 24.66410 | 120.85882 | 40982 ft | 542 kts | 46° |
| 2026-05-06 11:13 | 24.71271 | 120.92234 | 40980 ft | 542 kts | 46° |
| 2026-05-06 11:13 | 24.76151 | 120.98559 | 40982 ft | 542 kts | 45° |
| 2026-05-06 11:14 | 24.81049 | 121.04866 | 40980 ft | 542 kts | 45° |
| 2026-05-06 11:14 | 24.85911 | 121.11126 | 40972 ft | 541 kts | 45° |
| 2026-05-06 11:15 | 24.90812 | 121.17439 | 40970 ft | 541 kts | 45° |
| 2026-05-06 11:15 | 24.95705 | 121.23748 | 40973 ft | 541 kts | 45° |
| 2026-05-06 11:16 | 25.00595 | 121.30062 | 40972 ft | 541 kts | 45° |
| 2026-05-06 11:16 | 25.05471 | 121.36371 | 40970 ft | 541 kts | 45° |
| 2026-05-06 11:17 | 25.10357 | 121.42701 | 40970 ft | 541 kts | 45° |
| 2026-05-06 11:17 | 25.15229 | 121.49019 | 40969 ft | 540 kts | 46° |
| 2026-05-06 11:18 | 25.20743 | 121.54513 | 40968 ft | 530 kts | 31° |
| 2026-05-06 11:18 | 25.26703 | 121.59195 | 40974 ft | 529 kts | 29° |
| 2026-05-06 11:19 | 25.32774 | 121.63798 | 40970 ft | 529 kts | 29° |
| 2026-05-06 11:19 | 25.38829 | 121.68397 | 40973 ft | 528 kts | 29° |
| 2026-05-06 11:20 | 25.44880 | 121.73027 | 40984 ft | 528 kts | 29° |
| 2026-05-06 11:20 | 25.50918 | 121.77664 | 40981 ft | 528 kts | 29° |
| 2026-05-06 11:21 | 25.56949 | 121.82303 | 40987 ft | 528 kts | 29° |
| 2026-05-06 11:21 | 25.62988 | 121.86954 | 40980 ft | 528 kts | 29° |
| 2026-05-06 11:22 | 25.69017 | 121.91605 | 40985 ft | 528 kts | 29° |
| 2026-05-06 11:22 | 25.75046 | 121.96249 | 40992 ft | 527 kts | 29° |
| 2026-05-06 11:23 | 25.81098 | 122.00856 | 40992 ft | 527 kts | 28° |
| 2026-05-06 11:23 | 25.87117 | 122.05424 | 40994 ft | 527 kts | 29° |
| 2026-05-06 11:24 | 25.93170 | 122.10034 | 40994 ft | 527 kts | 29° |
| 2026-05-06 11:24 | 25.99213 | 122.14652 | 40995 ft | 527 kts | 29° |
| 2026-05-06 11:25 | 26.05253 | 122.19275 | 40994 ft | 527 kts | 29° |
| 2026-05-06 11:25 | 26.11282 | 122.23896 | 40999 ft | 526 kts | 29° |
| 2026-05-06 11:26 | 26.17307 | 122.28541 | 41000 ft | 526 kts | 29° |
| 2026-05-06 11:26 | 26.23295 | 122.33231 | 40997 ft | 526 kts | 30° |
| 2026-05-06 11:27 | 26.29241 | 122.37902 | 40995 ft | 526 kts | 30° |
| 2026-05-06 11:27 | 26.35221 | 122.42598 | 40999 ft | 525 kts | 30° |
| 2026-05-06 11:28 | 26.41199 | 122.47292 | 41003 ft | 525 kts | 30° |
| 2026-05-06 11:28 | 26.47163 | 122.51981 | 41004 ft | 525 kts | 30° |
| 2026-05-06 11:29 | 26.53130 | 122.56678 | 41003 ft | 525 kts | 30° |
| 2026-05-06 11:29 | 26.59091 | 122.61377 | 41003 ft | 524 kts | 30° |
| 2026-05-06 11:30 | 26.65046 | 122.66077 | 41003 ft | 524 kts | 30° |
| 2026-05-06 11:30 | 26.70991 | 122.70776 | 41007 ft | 523 kts | 30° |
| 2026-05-06 11:31 | 26.76935 | 122.75476 | 41002 ft | 523 kts | 30° |
| 2026-05-06 11:31 | 26.79880 | 122.77810 | 40977 ft | 512 kts | 30° |
| 2026-05-06 11:31 | 26.82752 | 122.80094 | 41003 ft | 500 kts | 30° |
| 2026-05-06 11:32 | 26.88356 | 122.84544 | 41004 ft | 491 kts | 30° |
| 2026-05-06 11:32 | 26.93920 | 122.88953 | 41004 ft | 489 kts | 30° |
| 2026-05-06 11:33 | 26.99475 | 122.93361 | 41006 ft | 489 kts | 30° |
| 2026-05-06 11:33 | 27.05024 | 122.97775 | 41007 ft | 489 kts | 30° |
| 2026-05-06 11:34 | 27.10563 | 123.02191 | 41007 ft | 488 kts | 30° |
| 2026-05-06 11:34 | 27.16061 | 123.06590 | 41007 ft | 488 kts | 30° |
| 2026-05-06 11:35 | 27.21587 | 123.11019 | 41007 ft | 488 kts | 30° |
| 2026-05-06 11:35 | 27.27108 | 123.15447 | 41014 ft | 487 kts | 30° |
| 2026-05-06 11:36 | 27.32621 | 123.19875 | 41003 ft | 487 kts | 30° |
| 2026-05-06 11:36 | 27.38155 | 123.24324 | 41011 ft | 487 kts | 30° |
| 2026-05-06 11:37 | 27.43663 | 123.28758 | 41012 ft | 487 kts | 30° |
| 2026-05-06 11:37 | 27.48239 | 123.32446 | 41011 ft | 486 kts | 30° |
| 2026-05-06 11:38 | 27.53733 | 123.36879 | 41013 ft | 486 kts | 30° |
| 2026-05-06 11:38 | 27.59234 | 123.41324 | 41018 ft | 486 kts | 30° |
| 2026-05-06 11:39 | 27.64724 | 123.45764 | 41017 ft | 486 kts | 30° |
| 2026-05-06 11:39 | 27.70210 | 123.50208 | 41014 ft | 485 kts | 30° |
| 2026-05-06 11:40 | 27.75696 | 123.54657 | 41016 ft | 485 kts | 30° |
| 2026-05-06 11:40 | 27.81141 | 123.59079 | 41013 ft | 485 kts | 30° |
| 2026-05-06 11:41 | 27.86613 | 123.63528 | 41018 ft | 485 kts | 30° |
| 2026-05-06 11:41 | 27.92084 | 123.67981 | 41020 ft | 484 kts | 30° |
| 2026-05-06 11:42 | 27.97544 | 123.72432 | 41015 ft | 484 kts | 29° |
| 2026-05-06 11:42 | 28.03029 | 123.76865 | 41020 ft | 484 kts | 29° |
| 2026-05-06 11:43 | 28.08503 | 123.81289 | 41022 ft | 483 kts | 29° |
| 2026-05-06 11:43 | 28.13970 | 123.85722 | 41023 ft | 483 kts | 29° |
| 2026-05-06 11:44 | 28.22158 | 123.92379 | 41027 ft | 483 kts | 30° |
| 2026-05-06 11:44 | 28.27616 | 123.96824 | 41023 ft | 482 kts | 30° |
| 2026-05-06 11:45 | 28.32656 | 124.01943 | 41025 ft | 494 kts | 45° |
| 2026-05-06 11:45 | 28.36917 | 124.08108 | 41027 ft | 498 kts | 47° |
| 2026-05-06 11:46 | 28.41032 | 124.14438 | 41026 ft | 498 kts | 48° |
| 2026-05-06 11:46 | 28.45107 | 124.20746 | 41029 ft | 498 kts | 47° |
| 2026-05-06 11:47 | 28.49222 | 124.27078 | 41037 ft | 498 kts | 47° |
| 2026-05-06 11:47 | 28.53339 | 124.33397 | 41023 ft | 497 kts | 47° |
| 2026-05-06 11:48 | 28.57458 | 124.39725 | 41028 ft | 497 kts | 47° |
| 2026-05-06 11:48 | 28.61578 | 124.46064 | 41031 ft | 497 kts | 47° |
| 2026-05-06 11:49 | 28.65684 | 124.52394 | 41032 ft | 497 kts | 47° |
| 2026-05-06 11:49 | 28.69793 | 124.58738 | 41031 ft | 497 kts | 47° |
| 2026-05-06 11:50 | 28.73932 | 124.65045 | 41033 ft | 494 kts | 44° |
| 2026-05-06 11:50 | 28.78891 | 124.70179 | 41033 ft | 478 kts | 27° |
| 2026-05-06 11:51 | 28.84795 | 124.73375 | 41031 ft | 467 kts | 15° |
| 2026-05-06 11:51 | 28.90914 | 124.75846 | 41033 ft | 467 kts | 13° |
| 2026-05-06 11:52 | 28.97062 | 124.78233 | 41031 ft | 467 kts | 13° |
| 2026-05-06 11:52 | 29.03213 | 124.80653 | 41034 ft | 467 kts | 14° |
| 2026-05-06 11:53 | 29.09350 | 124.83097 | 41038 ft | 467 kts | 14° |
| 2026-05-06 11:53 | 29.15504 | 124.85560 | 41038 ft | 467 kts | 14° |
| 2026-05-06 11:54 | 29.21643 | 124.88020 | 41040 ft | 467 kts | 14° |
| 2026-05-06 11:54 | 29.27743 | 124.90466 | 41042 ft | 468 kts | 14° |
| 2026-05-06 11:55 | 29.33886 | 124.92931 | 41040 ft | 468 kts | 14° |
| 2026-05-06 11:55 | 29.40033 | 124.95401 | 41040 ft | 468 kts | 14° |
| 2026-05-06 11:56 | 29.46182 | 124.97876 | 41044 ft | 468 kts | 14° |
| 2026-05-06 11:56 | 29.52327 | 125.00351 | 41042 ft | 468 kts | 14° |
| 2026-05-06 11:57 | 29.58469 | 125.02830 | 41046 ft | 468 kts | 14° |
| 2026-05-06 11:57 | 29.64621 | 125.05315 | 41047 ft | 468 kts | 14° |
| 2026-05-06 11:58 | 29.70759 | 125.07798 | 41046 ft | 468 kts | 14° |
| 2026-05-06 11:58 | 29.76866 | 125.10271 | 41050 ft | 468 kts | 14° |
| 2026-05-06 11:59 | 29.83011 | 125.12763 | 41049 ft | 468 kts | 14° |
| 2026-05-06 11:59 | 29.89149 | 125.15255 | 41046 ft | 468 kts | 14° |
| 2026-05-06 12:00 | 29.95292 | 125.17753 | 41048 ft | 468 kts | 15° |
| 2026-05-06 12:00 | 30.01431 | 125.20254 | 41050 ft | 468 kts | 15° |
| 2026-05-06 12:01 | 30.07538 | 125.22755 | 41052 ft | 468 kts | 15° |
| 2026-05-06 12:01 | 30.13727 | 125.25285 | 41052 ft | 468 kts | 15° |
| 2026-05-06 12:02 | 30.19836 | 125.27787 | 41054 ft | 469 kts | 15° |
| 2026-05-06 12:02 | 30.25986 | 125.30311 | 41054 ft | 469 kts | 15° |
| 2026-05-06 12:03 | 30.32130 | 125.32836 | 41057 ft | 469 kts | 15° |
| 2026-05-06 12:03 | 30.38279 | 125.35367 | 41057 ft | 469 kts | 15° |
| 2026-05-06 12:04 | 30.44437 | 125.37904 | 41059 ft | 469 kts | 15° |
| 2026-05-06 12:04 | 30.50597 | 125.40446 | 41055 ft | 469 kts | 15° |
| 2026-05-06 12:05 | 30.56761 | 125.42993 | 41054 ft | 470 kts | 15° |
| 2026-05-06 12:05 | 30.62921 | 125.45541 | 41057 ft | 470 kts | 15° |
| 2026-05-06 12:06 | 30.69076 | 125.48091 | 41056 ft | 470 kts | 15° |
| 2026-05-06 12:06 | 30.75201 | 125.50632 | 41056 ft | 470 kts | 15° |
| 2026-05-06 12:07 | 30.81364 | 125.53192 | 41061 ft | 470 kts | 15° |
| 2026-05-06 12:07 | 30.87527 | 125.55756 | 41063 ft | 471 kts | 15° |
| 2026-05-06 12:08 | 30.93691 | 125.58324 | 41061 ft | 471 kts | 15° |
| 2026-05-06 12:08 | 30.99864 | 125.60899 | 41060 ft | 471 kts | 15° |
| 2026-05-06 12:09 | 31.06034 | 125.63476 | 41069 ft | 471 kts | 15° |
| 2026-05-06 12:09 | 31.12213 | 125.66061 | 41064 ft | 471 kts | 15° |
| 2026-05-06 12:10 | 31.18378 | 125.68643 | 41066 ft | 471 kts | 15° |
| 2026-05-06 12:10 | 31.24554 | 125.71233 | 41066 ft | 471 kts | 15° |
| 2026-05-06 12:11 | 31.30687 | 125.73809 | 41062 ft | 472 kts | 15° |
| 2026-05-06 12:11 | 31.36862 | 125.76407 | 41067 ft | 472 kts | 15° |
| 2026-05-06 12:12 | 31.43040 | 125.79009 | 41056 ft | 472 kts | 15° |
| 2026-05-06 12:12 | 31.49218 | 125.81615 | 41061 ft | 472 kts | 15° |
| 2026-05-06 12:13 | 31.55404 | 125.84228 | 41067 ft | 472 kts | 15° |
| 2026-05-06 12:13 | 31.61586 | 125.86846 | 41070 ft | 472 kts | 15° |
| 2026-05-06 12:14 | 31.67780 | 125.89452 | 41067 ft | 473 kts | 15° |
| 2026-05-06 12:14 | 31.73977 | 125.92051 | 41068 ft | 473 kts | 15° |
| 2026-05-06 12:15 | 31.80166 | 125.94659 | 41069 ft | 473 kts | 15° |
| 2026-05-06 12:15 | 31.86368 | 125.97280 | 41071 ft | 473 kts | 15° |
| 2026-05-06 12:16 | 31.92564 | 125.99896 | 41072 ft | 473 kts | 15° |
| 2026-05-06 12:16 | 31.98770 | 126.02521 | 41070 ft | 474 kts | 15° |
| 2026-05-06 12:17 | 32.04936 | 126.05136 | 41073 ft | 474 kts | 15° |
| 2026-05-06 12:17 | 32.11187 | 126.07790 | 41074 ft | 474 kts | 15° |
| 2026-05-06 12:18 | 32.17352 | 126.10401 | 41076 ft | 474 kts | 15° |
| 2026-05-06 12:18 | 32.23573 | 126.13038 | 41077 ft | 474 kts | 15° |
| 2026-05-06 12:19 | 32.29791 | 126.15679 | 41073 ft | 475 kts | 15° |
| 2026-05-06 12:19 | 32.36008 | 126.18325 | 41074 ft | 475 kts | 15° |
| 2026-05-06 12:20 | 32.42227 | 126.20976 | 41074 ft | 475 kts | 15° |
| 2026-05-06 12:20 | 32.48455 | 126.23635 | 41073 ft | 475 kts | 15° |
| 2026-05-06 12:21 | 32.54668 | 126.26293 | 41072 ft | 475 kts | 15° |
| 2026-05-06 12:21 | 32.60855 | 126.28954 | 41074 ft | 476 kts | 15° |
| 2026-05-06 12:22 | 32.67077 | 126.31621 | 41076 ft | 476 kts | 15° |
| 2026-05-06 12:22 | 32.73312 | 126.34299 | 41078 ft | 476 kts | 15° |
| 2026-05-06 12:23 | 32.79539 | 126.36980 | 41074 ft | 476 kts | 15° |
| 2026-05-06 12:23 | 32.85770 | 126.39668 | 41078 ft | 476 kts | 15° |
| 2026-05-06 12:24 | 32.92005 | 126.42362 | 41076 ft | 477 kts | 15° |
| 2026-05-06 12:24 | 32.98243 | 126.45061 | 41075 ft | 477 kts | 15° |
| 2026-05-06 12:25 | 33.04436 | 126.47742 | 41076 ft | 477 kts | 15° |
| 2026-05-06 12:25 | 33.10678 | 126.50421 | 41076 ft | 477 kts | 15° |
| 2026-05-06 12:26 | 33.16022 | 126.52715 | 41075 ft | 477 kts | 15° |
| 2026-05-06 12:26 | 33.21255 | 126.54968 | 41068 ft | 477 kts | 15° |
| 2026-05-06 12:27 | 33.27456 | 126.57644 | 41060 ft | 477 kts | 15° |
| 2026-05-06 12:27 | 33.33711 | 126.60349 | 41058 ft | 477 kts | 15° |
| 2026-05-06 12:28 | 33.40067 | 126.62450 | 41055 ft | 470 kts | 3° |
| 2026-05-06 12:28 | 33.46546 | 126.63321 | 41051 ft | 468 kts | 1° |
| 2026-05-06 12:29 | 33.53035 | 126.63999 | 41046 ft | 468 kts | 0° |
| 2026-05-06 12:29 | 33.59528 | 126.64656 | 41054 ft | 468 kts | 0° |
| 2026-05-06 12:30 | 33.66018 | 126.65334 | 41059 ft | 468 kts | 0° |
| 2026-05-06 12:30 | 33.72504 | 126.66024 | 41063 ft | 468 kts | 0° |
| 2026-05-06 12:31 | 33.78999 | 126.66718 | 41069 ft | 468 kts | 0° |
| 2026-05-06 12:31 | 33.85446 | 126.67408 | 41070 ft | 468 kts | 0° |
| 2026-05-06 12:32 | 33.91940 | 126.68103 | 41075 ft | 468 kts | 0° |
| 2026-05-06 12:32 | 33.98429 | 126.68799 | 41081 ft | 468 kts | 0° |
| 2026-05-06 12:33 | 34.04930 | 126.69497 | 41079 ft | 468 kts | 0° |
| 2026-05-06 12:33 | 34.11424 | 126.70195 | 41080 ft | 468 kts | 0° |
| 2026-05-06 12:34 | 34.17913 | 126.70894 | 41077 ft | 468 kts | 0° |
| 2026-05-06 12:34 | 34.24408 | 126.71596 | 41077 ft | 468 kts | 0° |